Pagina principale
METAR-TAF:

METAR-TAF

Aeroporti :

Bingöl, Turchia

latitudine: 38-51-40N, longitudine: 40-35-33E, altezza: 1063 m

Osservazione

Il bollettino è stato emesso 5 ore e 34 minuti fa, alle 12:50 UTC
Vento 7 kt da sud-est
Temperature 10°C
Umidità 62%
Pressione 1015 hPa
Visibilità 10 km o più
Poco nuvoloso ad un'altezza di 3500 ft
Nuvoloso ad un'altezza di 10000 ft

METAR: LTCU 241250Z 13007KT 9999 FEW035 BKN100 10/03 Q1015

Ora: 21:24 (18:24 UTC)

Previsione

Il bollettino è stato emesso 4 ore e 44 minuti fa, alle 13:40 UTC
Previsione valida dal 24 alle 15 UTC al 24 alle 24 UTC
Vento 8 kt da sud/sud-est
Visibilità 10 km o più
Nubi sparse ad un'altezza di 3500 ft
Nuvoloso ad un'altezza di 10000 ft
Temporaneamente
dal 24 alle 18 UTC al 24 alle 21 UTC
Nuvoloso ad un'altezza di 3000 ft
Nuvoloso ad un'altezza di 9000 ft
pioggia debole

TAF: LTCU 241340Z 2415/2424 16008KT 9999 SCT035 BKN100 TEMPO 2418/2421 -RA BKN030 BKN090

Osservazioni e previsioni meteorologiche di più di 4000 aeroporti (messaggi METAR e TAF).

Le stazioni disponibili sono rappresentate dai dischi gialli e rossi sulla carta.

Puntare il mouse per vedere il nome della stazione.

Clicca sopra per visualizzare le osservazioni e previsioni meteorologiche.

Per cambiare la mappa : fare clic sui pulsanti verdi con una croce nera per ingrandire, il pulsante verde con un trattino per diminuire, o sulla freccia verde per le mappe adiacenti.


METAR-TAF: